sensor_id;sensor_type;location;lat;lon;timestamp;pressure;altitude;pressure_sealevel;temperature;humidity
53484;BME280;75581;50.088;19.966;2024-02-21T00:01:43;99886.93;;;6.17;71.44
53484;BME280;75581;50.088;19.966;2024-02-21T00:04:12;99890.71;;;6.11;71.33
53484;BME280;75581;50.088;19.966;2024-02-21T00:06:44;99890.31;;;6.05;71.17
53484;BME280;75581;50.088;19.966;2024-02-21T00:09:14;99890.77;;;5.98;71.01
53484;BME280;75581;50.088;19.966;2024-02-21T00:11:42;99892.34;;;5.94;71.01
53484;BME280;75581;50.088;19.966;2024-02-21T00:14:12;99890.91;;;5.90;70.93
53484;BME280;75581;50.088;19.966;2024-02-21T00:16:40;99889.75;;;5.86;70.86
53484;BME280;75581;50.088;19.966;2024-02-21T00:19:10;99890.36;;;5.82;70.90
53484;BME280;75581;50.088;19.966;2024-02-21T00:21:41;99894.13;;;5.78;70.87
53484;BME280;75581;50.088;19.966;2024-02-21T00:24:10;99892.52;;;5.74;70.92
53484;BME280;75581;50.088;19.966;2024-02-21T00:26:41;99887.84;;;5.69;70.89
53484;BME280;75581;50.088;19.966;2024-02-21T00:29:11;99893.77;;;5.68;71.08
53484;BME280;75581;50.088;19.966;2024-02-21T00:31:40;99893.56;;;5.69;71.24
53484;BME280;75581;50.088;19.966;2024-02-21T00:34:12;99889.61;;;5.69;71.31
53484;BME280;75581;50.088;19.966;2024-02-21T00:36:42;99896.86;;;5.70;71.29
53484;BME280;75581;50.088;19.966;2024-02-21T00:39:14;99894.44;;;5.68;71.47
53484;BME280;75581;50.088;19.966;2024-02-21T00:41:55;99893.12;;;5.68;71.56
53484;BME280;75581;50.088;19.966;2024-02-21T00:44:31;99891.66;;;5.70;71.68
53484;BME280;75581;50.088;19.966;2024-02-21T00:47:02;99882.15;;;5.70;71.66
53484;BME280;75581;50.088;19.966;2024-02-21T00:49:31;99880.63;;;5.68;71.83
53484;BME280;75581;50.088;19.966;2024-02-21T00:52:01;99881.38;;;5.68;72.01
53484;BME280;75581;50.088;19.966;2024-02-21T00:54:30;99874.20;;;5.68;72.18
53484;BME280;75581;50.088;19.966;2024-02-21T00:57:15;99869.17;;;5.70;72.37
53484;BME280;75581;50.088;19.966;2024-02-21T00:59:44;99865.92;;;5.70;72.46
53484;BME280;75581;50.088;19.966;2024-02-21T01:02:14;99858.61;;;5.69;72.43
53484;BME280;75581;50.088;19.966;2024-02-21T01:04:44;99860.48;;;5.69;72.61
53484;BME280;75581;50.088;19.966;2024-02-21T01:07:13;99858.80;;;5.70;72.64
53484;BME280;75581;50.088;19.966;2024-02-21T01:09:43;99860.48;;;5.70;72.76
53484;BME280;75581;50.088;19.966;2024-02-21T01:12:12;99861.34;;;5.71;72.76
53484;BME280;75581;50.088;19.966;2024-02-21T01:14:44;99860.68;;;5.71;72.84
53484;BME280;75581;50.088;19.966;2024-02-21T01:17:15;99860.77;;;5.70;72.93
53484;BME280;75581;50.088;19.966;2024-02-21T01:19:46;99863.16;;;5.68;72.96
53484;BME280;75581;50.088;19.966;2024-02-21T01:22:15;99859.98;;;5.66;72.98
53484;BME280;75581;50.088;19.966;2024-02-21T01:24:45;99868.27;;;5.64;73.15
53484;BME280;75581;50.088;19.966;2024-02-21T01:27:15;99855.30;;;5.63;73.24
53484;BME280;75581;50.088;19.966;2024-02-21T01:29:45;99851.15;;;5.62;73.25
53484;BME280;75581;50.088;19.966;2024-02-21T01:32:16;99850.36;;;5.61;73.29
53484;BME280;75581;50.088;19.966;2024-02-21T01:34:47;99845.58;;;5.61;73.36
53484;BME280;75581;50.088;19.966;2024-02-21T01:37:17;99844.91;;;5.60;73.36
53484;BME280;75581;50.088;19.966;2024-02-21T01:39:46;99838.50;;;5.57;73.47
53484;BME280;75581;50.088;19.966;2024-02-21T01:42:15;99838.20;;;5.55;73.47
53484;BME280;75581;50.088;19.966;2024-02-21T01:44:44;99830.77;;;5.48;73.33
53484;BME280;75581;50.088;19.966;2024-02-21T01:47:14;99834.13;;;5.44;73.43
53484;BME280;75581;50.088;19.966;2024-02-21T01:49:44;99829.50;;;5.38;73.51
53484;BME280;75581;50.088;19.966;2024-02-21T01:52:16;99830.85;;;5.33;73.57
53484;BME280;75581;50.088;19.966;2024-02-21T01:54:47;99830.72;;;5.27;73.76
53484;BME280;75581;50.088;19.966;2024-02-21T01:57:16;99836.78;;;5.23;73.93
53484;BME280;75581;50.088;19.966;2024-02-21T01:59:46;99835.60;;;5.21;74.13
53484;BME280;75581;50.088;19.966;2024-02-21T02:02:15;99834.34;;;5.19;74.20
53484;BME280;75581;50.088;19.966;2024-02-21T02:04:46;99832.98;;;5.18;74.30
53484;BME280;75581;50.088;19.966;2024-02-21T02:07:15;99834.11;;;5.18;74.47
53484;BME280;75581;50.088;19.966;2024-02-21T02:09:44;99827.17;;;5.19;74.58
53484;BME280;75581;50.088;19.966;2024-02-21T02:12:13;99820.33;;;5.21;74.62
53484;BME280;75581;50.088;19.966;2024-02-21T02:14:43;99824.00;;;5.22;74.59
53484;BME280;75581;50.088;19.966;2024-02-21T02:17:15;99832.35;;;5.22;74.63
53484;BME280;75581;50.088;19.966;2024-02-21T02:19:45;99822.42;;;5.23;74.76
53484;BME280;75581;50.088;19.966;2024-02-21T02:22:17;99819.36;;;5.24;74.87
53484;BME280;75581;50.088;19.966;2024-02-21T02:24:50;99826.94;;;5.26;74.97
53484;BME280;75581;50.088;19.966;2024-02-21T02:27:18;99821.45;;;5.27;74.96
53484;BME280;75581;50.088;19.966;2024-02-21T02:29:48;99816.88;;;5.29;74.89
53484;BME280;75581;50.088;19.966;2024-02-21T02:32:18;99817.66;;;5.30;74.89
53484;BME280;75581;50.088;19.966;2024-02-21T02:34:47;99818.14;;;5.32;74.92
53484;BME280;75581;50.088;19.966;2024-02-21T02:37:16;99811.39;;;5.33;74.96
53484;BME280;75581;50.088;19.966;2024-02-21T02:39:55;99810.55;;;5.33;74.94
53484;BME280;75581;50.088;19.966;2024-02-21T02:42:24;99807.88;;;5.33;74.93
53484;BME280;75581;50.088;19.966;2024-02-21T02:44:54;99806.05;;;5.35;74.93
53484;BME280;75581;50.088;19.966;2024-02-21T02:47:26;99802.96;;;5.35;75.00
53484;BME280;75581;50.088;19.966;2024-02-21T02:49:55;99810.48;;;5.36;75.02
53484;BME280;75581;50.088;19.966;2024-02-21T02:52:24;99806.41;;;5.37;75.03
53484;BME280;75581;50.088;19.966;2024-02-21T02:54:53;99807.55;;;5.40;75.06
53484;BME280;75581;50.088;19.966;2024-02-21T02:57:25;99810.35;;;5.40;74.97
53484;BME280;75581;50.088;19.966;2024-02-21T02:59:57;99808.21;;;5.40;74.89
53484;BME280;75581;50.088;19.966;2024-02-21T03:02:28;99810.05;;;5.41;75.03
53484;BME280;75581;50.088;19.966;2024-02-21T03:04:57;99806.14;;;5.42;74.96
53484;BME280;75581;50.088;19.966;2024-02-21T03:07:26;99801.89;;;5.42;74.92
53484;BME280;75581;50.088;19.966;2024-02-21T03:09:56;99802.92;;;5.41;74.91
53484;BME280;75581;50.088;19.966;2024-02-21T03:12:25;99799.84;;;5.41;74.98
53484;BME280;75581;50.088;19.966;2024-02-21T03:14:59;99793.91;;;5.42;74.93
53484;BME280;75581;50.088;19.966;2024-02-21T03:17:32;99787.77;;;5.41;74.91
53484;BME280;75581;50.088;19.966;2024-02-21T03:20:03;99786.09;;;5.38;74.89
53484;BME280;75581;50.088;19.966;2024-02-21T03:22:43;99782.63;;;5.36;74.94
53484;BME280;75581;50.088;19.966;2024-02-21T03:25:16;99784.06;;;5.37;74.96
53484;BME280;75581;50.088;19.966;2024-02-21T03:27:48;99789.13;;;5.36;75.02
53484;BME280;75581;50.088;19.966;2024-02-21T03:30:18;99789.09;;;5.36;75.05
53484;BME280;75581;50.088;19.966;2024-02-21T03:32:47;99788.88;;;5.37;75.04
53484;BME280;75581;50.088;19.966;2024-02-21T03:35:20;99790.16;;;5.34;75.04
53484;BME280;75581;50.088;19.966;2024-02-21T03:38:11;99795.31;;;5.36;75.05
53484;BME280;75581;50.088;19.966;2024-02-21T03:44:20;99789.89;;;5.40;75.22
53484;BME280;75581;50.088;19.966;2024-02-21T03:47:08;99787.98;;;5.40;75.24
53484;BME280;75581;50.088;19.966;2024-02-21T03:49:53;99777.44;;;5.42;75.16
53484;BME280;75581;50.088;19.966;2024-02-21T03:52:22;99780.75;;;5.40;75.09
53484;BME280;75581;50.088;19.966;2024-02-21T03:54:52;99785.30;;;5.41;75.17
53484;BME280;75581;50.088;19.966;2024-02-21T03:57:32;99786.66;;;5.41;75.24
53484;BME280;75581;50.088;19.966;2024-02-21T04:00:23;99782.27;;;5.41;75.12
53484;BME280;75581;50.088;19.966;2024-02-21T04:02:53;99782.52;;;5.40;75.18
53484;BME280;75581;50.088;19.966;2024-02-21T04:05:32;99787.70;;;5.42;75.14
53484;BME280;75581;50.088;19.966;2024-02-21T04:08:06;99785.89;;;5.42;75.21
53484;BME280;75581;50.088;19.966;2024-02-21T04:10:35;99781.94;;;5.41;75.18
53484;BME280;75581;50.088;19.966;2024-02-21T04:13:07;99777.76;;;5.38;75.10
53484;BME280;75581;50.088;19.966;2024-02-21T04:15:36;99776.58;;;5.35;75.10
53484;BME280;75581;50.088;19.966;2024-02-21T04:18:06;99776.30;;;5.33;75.12
53484;BME280;75581;50.088;19.966;2024-02-21T04:20:35;99775.40;;;5.32;75.12
53484;BME280;75581;50.088;19.966;2024-02-21T04:23:05;99773.47;;;5.32;75.33
53484;BME280;75581;50.088;19.966;2024-02-21T04:25:34;99769.36;;;5.32;75.23
53484;BME280;75581;50.088;19.966;2024-02-21T04:28:06;99761.08;;;5.33;75.23
53484;BME280;75581;50.088;19.966;2024-02-21T04:30:35;99758.13;;;5.31;75.18
53484;BME280;75581;50.088;19.966;2024-02-21T04:33:05;99752.30;;;5.28;75.13
53484;BME280;75581;50.088;19.966;2024-02-21T04:35:36;99752.12;;;5.24;75.02
53484;BME280;75581;50.088;19.966;2024-02-21T04:38:06;99753.21;;;5.20;75.10
53484;BME280;75581;50.088;19.966;2024-02-21T04:40:35;99753.27;;;5.17;75.09
53484;BME280;75581;50.088;19.966;2024-02-21T04:43:04;99751.40;;;5.12;75.05
53484;BME280;75581;50.088;19.966;2024-02-21T04:45:33;99753.58;;;5.07;75.08
53484;BME280;75581;50.088;19.966;2024-02-21T04:48:14;99749.58;;;5.01;75.09
53484;BME280;75581;50.088;19.966;2024-02-21T04:50:46;99753.92;;;4.97;75.21
53484;BME280;75581;50.088;19.966;2024-02-21T04:53:15;99747.48;;;4.93;75.35
53484;BME280;75581;50.088;19.966;2024-02-21T04:55:45;99755.19;;;4.92;75.48
53484;BME280;75581;50.088;19.966;2024-02-21T04:58:14;99758.72;;;4.92;75.62
53484;BME280;75581;50.088;19.966;2024-02-21T05:01:04;99762.15;;;4.94;75.79
53484;BME280;75581;50.088;19.966;2024-02-21T05:03:33;99761.04;;;4.97;75.88
53484;BME280;75581;50.088;19.966;2024-02-21T05:06:03;99758.94;;;4.98;75.75
53484;BME280;75581;50.088;19.966;2024-02-21T05:08:32;99764.39;;;5.01;75.86
53484;BME280;75581;50.088;19.966;2024-02-21T05:11:05;99763.06;;;5.03;75.89
53484;BME280;75581;50.088;19.966;2024-02-21T05:13:34;99762.51;;;5.06;75.86
53484;BME280;75581;50.088;19.966;2024-02-21T05:16:04;99756.98;;;5.08;75.85
53484;BME280;75581;50.088;19.966;2024-02-21T05:18:37;99761.73;;;5.11;75.87
53484;BME280;75581;50.088;19.966;2024-02-21T05:21:06;99759.00;;;5.14;75.79
53484;BME280;75581;50.088;19.966;2024-02-21T05:23:35;99754.87;;;5.17;75.82
53484;BME280;75581;50.088;19.966;2024-02-21T05:29:17;99762.38;;;5.22;75.63
53484;BME280;75581;50.088;19.966;2024-02-21T05:34:21;99764.05;;;5.26;75.54
53484;BME280;75581;50.088;19.966;2024-02-21T05:36:51;99764.03;;;5.27;75.65
53484;BME280;75581;50.088;19.966;2024-02-21T05:39:21;99761.92;;;5.28;75.51
53484;BME280;75581;50.088;19.966;2024-02-21T05:41:51;99770.20;;;5.29;75.57
53484;BME280;75581;50.088;19.966;2024-02-21T05:44:21;99767.64;;;5.30;75.59
53484;BME280;75581;50.088;19.966;2024-02-21T05:46:51;99770.84;;;5.32;75.57
53484;BME280;75581;50.088;19.966;2024-02-21T05:49:20;99764.21;;;5.32;75.53
53484;BME280;75581;50.088;19.966;2024-02-21T05:51:49;99760.25;;;5.33;75.64
53484;BME280;75581;50.088;19.966;2024-02-21T05:54:18;99759.17;;;5.33;75.71
53484;BME280;75581;50.088;19.966;2024-02-21T05:56:51;99758.43;;;5.33;75.77
53484;BME280;75581;50.088;19.966;2024-02-21T05:59:20;99758.96;;;5.35;75.86
53484;BME280;75581;50.088;19.966;2024-02-21T06:01:57;99760.31;;;5.37;75.89
53484;BME280;75581;50.088;19.966;2024-02-21T06:04:27;99757.66;;;5.39;76.05
53484;BME280;75581;50.088;19.966;2024-02-21T06:06:56;99756.70;;;5.41;76.05
53484;BME280;75581;50.088;19.966;2024-02-21T06:09:25;99746.16;;;5.41;75.95
53484;BME280;75581;50.088;19.966;2024-02-21T06:11:54;99750.27;;;5.41;75.96
53484;BME280;75581;50.088;19.966;2024-02-21T06:14:24;99749.59;;;5.41;75.99
53484;BME280;75581;50.088;19.966;2024-02-21T06:16:53;99751.10;;;5.42;76.05
53484;BME280;75581;50.088;19.966;2024-02-21T06:19:22;99753.40;;;5.43;76.12
53484;BME280;75581;50.088;19.966;2024-02-21T06:21:51;99751.45;;;5.46;76.17
53484;BME280;75581;50.088;19.966;2024-02-21T06:24:20;99749.18;;;5.46;76.12
53484;BME280;75581;50.088;19.966;2024-02-21T06:26:50;99750.38;;;5.49;76.27
53484;BME280;75581;50.088;19.966;2024-02-21T06:29:19;99746.89;;;5.53;76.33
53484;BME280;75581;50.088;19.966;2024-02-21T06:31:48;99728.58;;;5.57;76.19
53484;BME280;75581;50.088;19.966;2024-02-21T06:34:17;99734.98;;;5.60;76.23
53484;BME280;75581;50.088;19.966;2024-02-21T06:36:46;99741.20;;;5.66;76.36
53484;BME280;75581;50.088;19.966;2024-02-21T06:39:16;99737.77;;;5.71;76.30
53484;BME280;75581;50.088;19.966;2024-02-21T06:41:45;99744.77;;;5.78;76.26
53484;BME280;75581;50.088;19.966;2024-02-21T06:44:14;99744.30;;;5.87;76.41
53484;BME280;75581;50.088;19.966;2024-02-21T06:46:43;99742.42;;;5.98;76.36
53484;BME280;75581;50.088;19.966;2024-02-21T06:49:12;99747.28;;;6.11;76.46
53484;BME280;75581;50.088;19.966;2024-02-21T06:51:45;99749.27;;;6.30;76.47
53484;BME280;75581;50.088;19.966;2024-02-21T06:54:14;99751.66;;;6.45;76.18
53484;BME280;75581;50.088;19.966;2024-02-21T06:56:43;99746.62;;;6.54;75.81
53484;BME280;75581;50.088;19.966;2024-02-21T06:59:11;99744.05;;;6.62;75.52
53484;BME280;75581;50.088;19.966;2024-02-21T07:01:46;99738.92;;;6.66;75.17
53484;BME280;75581;50.088;19.966;2024-02-21T07:04:16;99737.36;;;6.69;74.90
53484;BME280;75581;50.088;19.966;2024-02-21T07:06:45;99743.48;;;6.68;74.58
53484;BME280;75581;50.088;19.966;2024-02-21T07:09:15;99739.77;;;6.68;74.35
53484;BME280;75581;50.088;19.966;2024-02-21T07:11:44;99745.69;;;6.71;74.34
53484;BME280;75581;50.088;19.966;2024-02-21T07:14:14;99744.48;;;6.77;74.35
53484;BME280;75581;50.088;19.966;2024-02-21T07:16:44;99738.67;;;6.90;74.34
53484;BME280;75581;50.088;19.966;2024-02-21T07:19:13;99735.09;;;7.07;74.58
53484;BME280;75581;50.088;19.966;2024-02-21T07:21:42;99738.21;;;7.26;74.26
53484;BME280;75581;50.088;19.966;2024-02-21T07:24:11;99734.98;;;7.45;74.13
53484;BME280;75581;50.088;19.966;2024-02-21T07:26:42;99733.70;;;7.65;73.68
53484;BME280;75581;50.088;19.966;2024-02-21T07:29:14;99733.63;;;7.89;73.48
53484;BME280;75581;50.088;19.966;2024-02-21T07:31:44;99730.98;;;8.10;72.93
53484;BME280;75581;50.088;19.966;2024-02-21T07:34:13;99728.04;;;8.28;72.60
53484;BME280;75581;50.088;19.966;2024-02-21T07:36:43;99731.86;;;8.36;71.90
53484;BME280;75581;50.088;19.966;2024-02-21T07:39:13;99725.21;;;8.32;71.08
53484;BME280;75581;50.088;19.966;2024-02-21T07:41:42;99721.21;;;8.26;70.82
53484;BME280;75581;50.088;19.966;2024-02-21T07:44:13;99723.72;;;8.22;70.84
53484;BME280;75581;50.088;19.966;2024-02-21T07:46:42;99719.77;;;8.24;70.40
53484;BME280;75581;50.088;19.966;2024-02-21T07:49:11;99719.73;;;8.26;70.10
53484;BME280;75581;50.088;19.966;2024-02-21T07:51:40;99715.92;;;8.27;69.83
53484;BME280;75581;50.088;19.966;2024-02-21T07:54:10;99709.06;;;8.41;69.93
53484;BME280;75581;50.088;19.966;2024-02-21T07:56:44;99710.15;;;8.62;70.03
53484;BME280;75581;50.088;19.966;2024-02-21T07:59:13;99708.91;;;8.81;69.46
53484;BME280;75581;50.088;19.966;2024-02-21T08:01:42;99698.98;;;9.00;69.29
53484;BME280;75581;50.088;19.966;2024-02-21T08:04:13;99698.14;;;9.19;68.39
53484;BME280;75581;50.088;19.966;2024-02-21T08:06:43;99699.66;;;9.36;68.34
53484;BME280;75581;50.088;19.966;2024-02-21T08:09:13;99694.48;;;9.62;68.18
53484;BME280;75581;50.088;19.966;2024-02-21T08:11:43;99691.84;;;9.91;68.16
53484;BME280;75581;50.088;19.966;2024-02-21T08:14:12;99695.59;;;10.13;67.36
53484;BME280;75581;50.088;19.966;2024-02-21T08:16:43;99691.20;;;10.25;66.84
53484;BME280;75581;50.088;19.966;2024-02-21T08:19:12;99690.75;;;10.41;66.18
53484;BME280;75581;50.088;19.966;2024-02-21T08:21:44;99690.71;;;10.65;65.70
53484;BME280;75581;50.088;19.966;2024-02-21T08:24:15;99685.99;;;11.22;66.23
53484;BME280;75581;50.088;19.966;2024-02-21T08:26:44;99685.15;;;11.85;65.63
53484;BME280;75581;50.088;19.966;2024-02-21T08:29:13;99686.67;;;11.81;62.74
53484;BME280;75581;50.088;19.966;2024-02-21T08:31:46;99681.55;;;11.47;61.70
53484;BME280;75581;50.088;19.966;2024-02-21T08:34:15;99679.30;;;11.11;61.34
53484;BME280;75581;50.088;19.966;2024-02-21T08:36:44;99679.63;;;10.82;61.67
53484;BME280;75581;50.088;19.966;2024-02-21T08:39:13;99678.83;;;10.60;61.85
53484;BME280;75581;50.088;19.966;2024-02-21T08:41:45;99677.89;;;10.36;61.95
53484;BME280;75581;50.088;19.966;2024-02-21T08:44:25;99673.44;;;10.18;62.17
53484;BME280;75581;50.088;19.966;2024-02-21T08:46:55;99672.89;;;10.01;62.23
53484;BME280;75581;50.088;19.966;2024-02-21T08:49:25;99672.36;;;9.93;62.67
53484;BME280;75581;50.088;19.966;2024-02-21T08:52:02;99667.08;;;10.02;63.22
53484;BME280;75581;50.088;19.966;2024-02-21T08:54:32;99658.88;;;10.09;63.32
53484;BME280;75581;50.088;19.966;2024-02-21T08:57:02;99656.80;;;10.15;63.11
53484;BME280;75581;50.088;19.966;2024-02-21T08:59:32;99655.41;;;10.20;63.00
53484;BME280;75581;50.088;19.966;2024-02-21T09:02:02;99652.45;;;10.45;63.01
53484;BME280;75581;50.088;19.966;2024-02-21T09:04:32;99652.33;;;10.98;63.21
53484;BME280;75581;50.088;19.966;2024-02-21T09:07:02;99651.38;;;12.15;63.70
53484;BME280;75581;50.088;19.966;2024-02-21T09:09:31;99646.77;;;13.27;62.31
53484;BME280;75581;50.088;19.966;2024-02-21T09:12:01;99640.74;;;13.60;59.87
53484;BME280;75581;50.088;19.966;2024-02-21T09:14:37;99639.73;;;13.52;58.28
53484;BME280;75581;50.088;19.966;2024-02-21T09:17:07;99638.86;;;13.26;57.20
53484;BME280;75581;50.088;19.966;2024-02-21T09:19:36;99647.61;;;13.06;56.90
53484;BME280;75581;50.088;19.966;2024-02-21T09:22:08;99645.54;;;12.93;56.67
53484;BME280;75581;50.088;19.966;2024-02-21T09:24:37;99646.40;;;12.86;55.52
53484;BME280;75581;50.088;19.966;2024-02-21T09:27:06;99651.22;;;12.64;55.43
53484;BME280;75581;50.088;19.966;2024-02-21T09:29:35;99647.46;;;12.83;56.75
53484;BME280;75581;50.088;19.966;2024-02-21T09:32:05;99649.65;;;13.36;56.19
53484;BME280;75581;50.088;19.966;2024-02-21T09:34:35;99646.27;;;13.88;55.90
53484;BME280;75581;50.088;19.966;2024-02-21T09:37:04;99652.03;;;13.88;55.21
53484;BME280;75581;50.088;19.966;2024-02-21T09:39:33;99653.69;;;13.72;53.85
53484;BME280;75581;50.088;19.966;2024-02-21T09:42:06;99654.53;;;13.40;54.02
53484;BME280;75581;50.088;19.966;2024-02-21T09:44:37;99649.57;;;13.11;54.02
53484;BME280;75581;50.088;19.966;2024-02-21T09:47:10;99653.54;;;12.80;54.08
53484;BME280;75581;50.088;19.966;2024-02-21T09:49:43;99651.15;;;12.46;53.70
53484;BME280;75581;50.088;19.966;2024-02-21T09:52:14;99650.15;;;12.12;53.96
53484;BME280;75581;50.088;19.966;2024-02-21T09:54:44;99654.46;;;11.83;54.24
53484;BME280;75581;50.088;19.966;2024-02-21T09:57:14;99653.07;;;11.52;54.25
53484;BME280;75581;50.088;19.966;2024-02-21T09:59:45;99650.14;;;11.25;54.63
53484;BME280;75581;50.088;19.966;2024-02-21T10:02:15;99645.33;;;11.03;55.11
53484;BME280;75581;50.088;19.966;2024-02-21T10:04:44;99644.11;;;10.95;55.79
53484;BME280;75581;50.088;19.966;2024-02-21T10:07:13;99634.70;;;10.87;55.98
53484;BME280;75581;50.088;19.966;2024-02-21T10:09:43;99640.02;;;10.85;56.52
53484;BME280;75581;50.088;19.966;2024-02-21T10:12:14;99635.45;;;10.85;56.66
53484;BME280;75581;50.088;19.966;2024-02-21T10:14:46;99628.18;;;10.83;56.84
53484;BME280;75581;50.088;19.966;2024-02-21T10:17:16;99626.59;;;10.76;56.35
53484;BME280;75581;50.088;19.966;2024-02-21T10:19:47;99629.73;;;10.64;56.59
53484;BME280;75581;50.088;19.966;2024-02-21T10:22:17;99628.70;;;10.65;57.04
53484;BME280;75581;50.088;19.966;2024-02-21T10:24:46;99625.98;;;10.68;56.92
53484;BME280;75581;50.088;19.966;2024-02-21T10:27:15;99621.23;;;10.68;56.67
53484;BME280;75581;50.088;19.966;2024-02-21T10:29:49;99617.77;;;10.68;56.75
53484;BME280;75581;50.088;19.966;2024-02-21T10:32:20;99616.27;;;10.68;56.57
53484;BME280;75581;50.088;19.966;2024-02-21T10:34:48;99611.56;;;10.62;56.45
53484;BME280;75581;50.088;19.966;2024-02-21T10:37:20;99610.51;;;10.59;56.54
53484;BME280;75581;50.088;19.966;2024-02-21T10:39:49;99603.33;;;10.54;56.63
53484;BME280;75581;50.088;19.966;2024-02-21T10:42:21;99595.56;;;10.53;56.81
53484;BME280;75581;50.088;19.966;2024-02-21T10:44:51;99590.54;;;10.53;56.76
53484;BME280;75581;50.088;19.966;2024-02-21T10:47:22;99591.14;;;10.48;56.39
53484;BME280;75581;50.088;19.966;2024-02-21T10:49:59;99586.33;;;10.38;56.46
53484;BME280;75581;50.088;19.966;2024-02-21T10:52:59;99579.48;;;10.39;56.88
53484;BME280;75581;50.088;19.966;2024-02-21T10:55:39;99584.27;;;10.52;57.26
53484;BME280;75581;50.088;19.966;2024-02-21T10:58:10;99580.53;;;10.62;57.05
53484;BME280;75581;50.088;19.966;2024-02-21T11:00:40;99582.74;;;10.66;56.95
53484;BME280;75581;50.088;19.966;2024-02-21T11:03:09;99580.11;;;10.75;56.98
53484;BME280;75581;50.088;19.966;2024-02-21T11:05:39;99568.29;;;10.82;56.73
53484;BME280;75581;50.088;19.966;2024-02-21T11:08:09;99566.55;;;10.85;56.46
53484;BME280;75581;50.088;19.966;2024-02-21T11:10:38;99564.34;;;10.86;56.56
53484;BME280;75581;50.088;19.966;2024-02-21T11:13:11;99556.18;;;10.86;56.23
53484;BME280;75581;50.088;19.966;2024-02-21T11:15:42;99554.64;;;10.82;56.39
53484;BME280;75581;50.088;19.966;2024-02-21T11:18:23;99552.73;;;10.74;56.22
53484;BME280;75581;50.088;19.966;2024-02-21T11:20:53;99549.23;;;10.68;56.31
53484;BME280;75581;50.088;19.966;2024-02-21T11:23:26;99551.40;;;10.57;56.27
53484;BME280;75581;50.088;19.966;2024-02-21T11:26:07;99550.88;;;10.53;56.72
53484;BME280;75581;50.088;19.966;2024-02-21T11:28:37;99542.63;;;10.60;57.07
53484;BME280;75581;50.088;19.966;2024-02-21T11:31:14;99544.66;;;10.69;57.15
53484;BME280;75581;50.088;19.966;2024-02-21T11:33:45;99544.98;;;10.76;56.80
53484;BME280;75581;50.088;19.966;2024-02-21T11:36:26;99538.52;;;10.77;56.57
53484;BME280;75581;50.088;19.966;2024-02-21T11:39:03;99531.82;;;10.78;56.71
53484;BME280;75581;50.088;19.966;2024-02-21T11:41:33;99527.84;;;10.80;56.63
53484;BME280;75581;50.088;19.966;2024-02-21T11:44:02;99526.07;;;10.79;56.60
53484;BME280;75581;50.088;19.966;2024-02-21T11:46:32;99523.92;;;10.75;56.53
53484;BME280;75581;50.088;19.966;2024-02-21T11:49:02;99520.09;;;10.67;56.35
53484;BME280;75581;50.088;19.966;2024-02-21T11:51:32;99520.89;;;10.55;56.48
53484;BME280;75581;50.088;19.966;2024-02-21T11:54:01;99514.77;;;10.47;56.69
53484;BME280;75581;50.088;19.966;2024-02-21T11:56:30;99512.76;;;10.38;56.94
53484;BME280;75581;50.088;19.966;2024-02-21T11:58:59;99507.77;;;10.28;56.99
53484;BME280;75581;50.088;19.966;2024-02-21T12:01:28;99504.66;;;10.19;57.15
53484;BME280;75581;50.088;19.966;2024-02-21T12:03:57;99501.55;;;10.10;57.49
53484;BME280;75581;50.088;19.966;2024-02-21T12:06:26;99500.20;;;10.06;57.72
53484;BME280;75581;50.088;19.966;2024-02-21T12:08:58;99500.32;;;10.01;58.00
53484;BME280;75581;50.088;19.966;2024-02-21T12:11:27;99498.45;;;9.98;58.14
53484;BME280;75581;50.088;19.966;2024-02-21T12:14:03;99501.02;;;9.97;58.26
53484;BME280;75581;50.088;19.966;2024-02-21T12:16:33;99495.67;;;9.96;58.13
53484;BME280;75581;50.088;19.966;2024-02-21T12:19:03;99492.76;;;9.95;58.19
53484;BME280;75581;50.088;19.966;2024-02-21T12:21:33;99490.52;;;9.92;57.93
53484;BME280;75581;50.088;19.966;2024-02-21T12:24:17;99488.16;;;9.89;58.24
53484;BME280;75581;50.088;19.966;2024-02-21T12:26:46;99488.52;;;9.92;58.36
53484;BME280;75581;50.088;19.966;2024-02-21T12:29:15;99488.52;;;9.97;58.44
53484;BME280;75581;50.088;19.966;2024-02-21T12:31:45;99485.48;;;10.01;58.45
53484;BME280;75581;50.088;19.966;2024-02-21T12:34:16;99481.86;;;10.05;58.32
53484;BME280;75581;50.088;19.966;2024-02-21T12:36:59;99485.14;;;10.08;57.98
53484;BME280;75581;50.088;19.966;2024-02-21T12:39:28;99487.97;;;10.11;57.91
53484;BME280;75581;50.088;19.966;2024-02-21T12:41:57;99483.81;;;10.15;57.70
53484;BME280;75581;50.088;19.966;2024-02-21T12:44:26;99481.67;;;10.17;57.60
53484;BME280;75581;50.088;19.966;2024-02-21T12:46:55;99476.68;;;10.21;57.64
53484;BME280;75581;50.088;19.966;2024-02-21T12:49:24;99477.95;;;10.24;57.44
53484;BME280;75581;50.088;19.966;2024-02-21T12:51:56;99474.13;;;10.24;57.38
53484;BME280;75581;50.088;19.966;2024-02-21T12:54:24;99474.57;;;10.26;57.34
53484;BME280;75581;50.088;19.966;2024-02-21T12:56:54;99470.13;;;10.28;57.43
53484;BME280;75581;50.088;19.966;2024-02-21T12:59:23;99464.04;;;10.33;57.62
53484;BME280;75581;50.088;19.966;2024-02-21T13:01:53;99459.99;;;10.33;57.21
53484;BME280;75581;50.088;19.966;2024-02-21T13:04:22;99467.21;;;10.28;56.94
53484;BME280;75581;50.088;19.966;2024-02-21T13:06:52;99456.59;;;10.23;57.00
53484;BME280;75581;50.088;19.966;2024-02-21T13:09:21;99450.37;;;10.21;57.15
53484;BME280;75581;50.088;19.966;2024-02-21T13:11:50;99453.40;;;10.16;57.00
53484;BME280;75581;50.088;19.966;2024-02-21T13:14:20;99454.54;;;10.12;56.87
53484;BME280;75581;50.088;19.966;2024-02-21T13:16:51;99450.82;;;10.06;57.02
53484;BME280;75581;50.088;19.966;2024-02-21T13:19:20;99448.57;;;10.01;57.29
53484;BME280;75581;50.088;19.966;2024-02-21T13:21:50;99452.27;;;9.99;57.48
53484;BME280;75581;50.088;19.966;2024-02-21T13:24:19;99452.23;;;9.96;57.49
53484;BME280;75581;50.088;19.966;2024-02-21T13:26:48;99451.36;;;9.91;57.27